Time;durP1;ratioP1;P1;durP2;ratioP2;P2;SDS_P1;SDS_P2;PMS_P1;PMS_P2;Temp;Humidity;BMP_temperature;BMP_pressure;BME280_temperature;BME280_humidity;BME280_pressure;Samples;Min_cycle;Max_cycle;Signal;HPM_P1;HPM_P2
2022/09/25 00:01:16;;;;;;;7.60;5.47;;;15.80;82.50;;;18.75;59.13;101242.78;5035732;28;20264;-66
2022/09/25 00:03:46;;;;;;;11.27;5.50;;;15.80;82.50;;;18.76;59.16;101249.75;5033899;28;20228;-66
2022/09/25 00:06:17;;;;;;;5.60;4.10;;;15.80;82.50;;;18.76;59.04;101243.59;5035245;28;20210;-64
2022/09/25 00:08:45;;;;;;;7.33;3.90;;;15.80;82.40;;;18.77;58.84;101250.56;5035284;28;20183;-66
2022/09/25 00:11:16;;;;;;;7.50;4.50;;;15.80;82.30;;;18.76;59.10;101255.06;5034736;28;20199;-65
2022/09/25 00:13:44;;;;;;;7.77;4.40;;;15.80;82.40;;;18.76;59.00;101260.41;5034416;28;20210;-66
2022/09/25 00:16:17;;;;;;;9.10;4.40;;;15.90;82.50;;;18.75;59.23;101256.13;5035005;28;20183;-66
2022/09/25 00:21:34;;;;;;;7.83;3.90;;;15.80;82.50;;;18.74;59.41;101249.16;5034230;28;20190;-66
2022/09/25 00:24:04;;;;;;;7.67;4.07;;;15.90;82.50;;;18.74;59.14;101251.81;5034329;28;20178;-66
2022/09/25 00:26:36;;;;;;;9.77;4.07;;;15.90;82.50;;;18.76;59.09;101252.41;5034449;28;20218;-65
2022/09/25 00:29:05;;;;;;;7.57;3.70;;;15.80;82.60;;;18.77;58.90;101250.56;5034079;28;20221;-64
2022/09/25 00:31:34;;;;;;;4.80;3.10;;;15.80;82.40;;;18.77;58.89;101251.38;5034256;28;20194;-65
2022/09/25 00:34:04;;;;;;;9.67;3.50;;;15.80;82.40;;;18.77;59.14;101250.56;5035384;28;20191;-67
2022/09/25 00:36:32;;;;;;;5.40;3.13;;;15.80;82.50;;;18.77;59.00;101251.38;5034674;28;20179;-66
2022/09/25 00:39:00;;;;;;;5.87;2.87;;;15.80;82.50;;;18.76;59.24;101252.41;5034253;28;20198;-66
2022/09/25 00:41:32;;;;;;;5.23;3.10;;;15.80;82.50;;;18.75;59.13;101241.97;5034209;28;20221;-65
2022/09/25 00:44:22;;;;;;;6.57;3.27;;;15.80;82.60;;;18.72;59.09;101245.88;5034172;28;20266;-66
2022/09/25 00:46:51;;;;;;;8.33;3.13;;;15.80;82.50;;;18.71;59.25;101244.22;5033842;28;20222;-65
2022/09/25 00:49:23;;;;;;;4.33;2.70;;;15.80;82.60;;;18.70;59.23;101245.28;5035104;28;20278;-65
2022/09/25 00:51:57;;;;;;;6.47;3.23;;;15.80;82.60;;;18.69;59.25;101242.81;5033699;28;20236;-65
2022/09/25 00:54:30;;;;;;;7.60;3.10;;;15.80;83.70;;;18.69;59.26;101248.97;5032735;28;20536;-65
2022/09/25 00:57:05;;;;;;;6.70;2.80;;;15.80;82.90;;;18.69;59.26;101250.81;5036951;28;20197;-67
2022/09/25 00:59:38;;;;;;;6.83;3.03;;;15.80;82.80;;;18.68;59.49;101251.88;5037121;28;20248;-65
2022/09/25 01:02:13;;;;;;;7.73;3.13;;;15.80;82.90;;;18.66;59.39;101244.06;5037147;28;20218;-65
2022/09/25 01:04:47;;;;;;;7.17;3.20;;;15.80;82.90;;;18.66;59.46;101252.06;5036060;28;20249;-64
2022/09/25 01:07:15;;;;;;;7.67;3.17;;;15.80;83.00;;;18.68;59.43;101247.34;5050156;28;20588;-65
2022/09/25 01:09:44;;;;;;;8.37;3.90;;;15.80;83.20;;;18.69;59.69;101248.97;5053409;28;20255;-65
2022/09/25 01:12:11;;;;;;;7.43;3.67;;;15.80;83.20;;;18.71;59.61;101254.91;5053208;28;20344;-65
2022/09/25 01:14:40;;;;;;;5.17;3.30;;;15.80;83.20;;;18.69;59.62;101256.16;5053799;28;20201;-66
2022/09/25 01:17:20;;;;;;;7.90;3.43;;;15.80;83.10;;;18.67;59.49;101255.53;5053368;28;20186;-66
2022/09/25 01:20:07;;;;;;;6.90;3.13;;;15.80;83.20;;;18.64;59.52;101246.13;5053710;28;20186;-66
2022/09/25 01:22:54;;;;;;;5.77;2.83;;;15.80;83.20;;;18.63;59.54;101244.50;5039339;28;20363;-66
2022/09/25 01:25:38;;;;;;;5.77;3.30;;;15.80;83.00;;;18.62;59.38;101248.19;5032770;28;20191;-67
2022/09/25 01:28:52;;;;;;;5.77;3.37;;;15.70;82.90;;;18.60;59.62;101244.94;5033059;28;20209;-66
2022/09/25 01:31:28;;;;;;;8.87;3.33;;;15.80;82.90;;;18.60;59.48;101244.09;5032932;28;20183;-66
2022/09/25 01:34:04;;;;;;;8.57;2.97;;;15.70;82.70;;;18.60;59.48;101244.94;5031745;28;20705;-66
2022/09/25 01:36:40;;;;;;;9.70;3.03;;;15.70;82.70;;;18.62;59.52;101250.84;5033434;28;20198;-66
2022/09/25 01:39:19;;;;;;;5.17;2.80;;;15.70;82.80;;;18.63;59.40;101243.69;5052379;28;20221;-64
2022/09/25 01:41:53;;;;;;;6.80;3.60;;;15.70;82.90;;;18.64;59.47;101251.47;5052213;28;20194;-66
2022/09/25 01:44:29;;;;;;;6.87;3.53;;;15.70;82.90;;;18.64;59.41;101262.13;5053040;28;20217;-65
2022/09/25 01:47:06;;;;;;;5.53;2.87;;;15.80;83.00;;;18.66;59.70;101253.94;5052841;28;20205;-66
2022/09/25 01:49:41;;;;;;;11.03;3.20;;;15.80;83.30;;;18.69;59.57;101254.31;5052961;28;20663;-65
2022/09/25 01:52:16;;;;;;;7.50;3.53;;;15.80;83.20;;;18.71;59.57;101249.56;5052452;28;20213;-65
2022/09/25 01:54:50;;;;;;;7.13;3.30;;;15.80;83.30;;;18.74;59.87;101251.81;5051169;28;20193;-65
2022/09/25 01:57:25;;;;;;;7.80;2.87;;;15.80;83.40;;;18.77;59.78;101256.72;5052816;28;20209;-66
2022/09/25 02:00:03;;;;;;;7.13;3.47;;;15.80;83.40;;;18.81;59.51;101255.25;5052747;28;20237;-66
2022/09/25 02:02:36;;;;;;;5.10;2.93;;;15.90;83.20;;;18.85;59.74;101252.97;5052122;28;20217;-65
2022/09/25 02:05:13;;;;;;;5.50;3.70;;;15.90;83.30;;;18.86;59.53;101252.75;5052153;28;20273;-66
2022/09/25 02:07:46;;;;;;;9.23;3.67;;;16.00;83.40;;;18.89;59.60;101247.00;5052349;28;20562;-65
2022/09/25 02:10:20;;;;;;;8.10;3.47;;;15.90;83.10;;;18.91;59.51;101247.59;5050389;28;20190;-65
2022/09/25 02:12:55;;;;;;;7.83;4.10;;;16.00;83.10;;;18.94;59.62;101254.34;5051788;28;20218;-65
2022/09/25 02:15:29;;;;;;;8.33;3.73;;;16.00;83.10;;;18.93;59.34;101247.38;5052444;28;20193;-65
2022/09/25 02:21:00;;;;;;;9.30;4.53;;;16.00;83.10;;;18.87;59.16;101251.72;5052101;28;20504;-65
2022/09/25 02:23:39;;;;;;;11.40;4.77;;;16.00;82.90;;;18.88;59.48;101256.03;5052116;28;20619;-66
2022/09/25 02:26:13;;;;;;;7.27;3.50;;;16.00;82.90;;;18.89;59.73;101260.34;5050334;28;20270;-66
2022/09/25 02:28:42;;;;;;;9.23;3.77;;;16.00;83.50;;;18.96;59.83;101254.94;5052415;28;20188;-66
2022/09/25 02:31:16;;;;;;;9.43;3.40;;;16.00;83.40;;;18.97;59.49;101255.78;5051916;28;20839;-66
2022/09/25 02:33:43;;;;;;;7.77;4.43;;;16.10;83.90;;;19.00;59.49;101247.31;5052040;28;20303;-66
2022/09/25 02:36:17;;;;;;;10.10;4.30;;;16.10;82.80;;;19.01;58.94;101256.97;5052547;28;20182;-64
2022/09/25 02:38:49;;;;;;;8.83;3.27;;;16.10;82.60;;;19.03;59.25;101239.69;5052031;28;20190;-65
2022/09/25 02:41:35;;;;;;;7.90;3.50;;;16.10;82.30;;;19.00;58.73;101240.13;5052150;28;20206;-64
2022/09/25 02:44:16;;;;;;;7.33;3.37;;;16.10;81.90;;;18.98;58.86;101236.88;5034918;28;20186;-64
2022/09/25 02:47:02;;;;;;;6.57;3.27;;;16.10;81.70;;;18.97;58.47;101239.75;5032288;28;20297;-65
2022/09/25 02:49:39;;;;;;;5.57;3.20;;;16.10;81.60;;;18.96;58.76;101240.78;5032365;28;20170;-65
2022/09/25 02:52:15;;;;;;;8.10;3.17;;;16.10;81.70;;;18.96;58.30;101248.78;5032030;28;20639;-64
2022/09/25 02:54:52;;;;;;;5.80;2.70;;;16.10;81.50;;;18.94;58.36;101241.81;5032300;28;20171;-64
2022/09/25 02:57:30;;;;;;;6.37;2.67;;;16.00;81.50;;;18.93;58.71;101245.53;5032263;28;20182;-66
2022/09/25 03:00:06;;;;;;;7.70;2.90;;;16.00;81.40;;;18.93;58.30;101250.84;5033219;28;20202;-66
2022/09/25 03:02:37;;;;;;;6.73;3.53;;;16.00;81.40;;;18.96;58.70;101240.78;5031442;28;20221;-66
2022/09/25 03:05:11;;;;;;;7.57;3.07;;;16.10;81.70;;;18.96;58.80;101246.13;5032078;28;20537;-66
2022/09/25 03:10:28;;;;;;;6.20;2.77;;;16.10;81.80;;;18.96;58.52;101248.78;5031750;28;20528;-65
2022/09/25 03:12:55;;;;;;;9.17;3.07;;;16.10;81.90;;;18.96;58.68;101249.59;5031654;28;20229;-66
2022/09/25 03:15:23;;;;;;;5.53;2.60;;;16.10;81.90;;;18.96;58.79;101244.28;5032815;28;20183;-66
2022/09/25 03:17:52;;;;;;;8.87;3.10;;;16.10;82.10;;;18.98;58.55;101239.53;5035526;28;20187;-65
2022/09/25 03:20:19;;;;;;;8.67;2.90;;;16.10;83.00;;;18.98;58.57;101241.38;5035430;28;20593;-65
2022/09/25 03:22:47;;;;;;;7.77;2.93;;;16.00;82.90;;;18.98;58.70;101238.72;5035543;28;20213;-64
2022/09/25 03:25:15;;;;;;;7.47;3.40;;;16.00;82.30;;;19.00;59.07;101233.97;5035480;28;20260;-65
2022/09/25 03:27:42;;;;;;;9.50;3.07;;;16.10;82.70;;;19.02;59.09;101237.25;5035572;28;20217;-65
2022/09/25 03:30:10;;;;;;;8.20;3.17;;;16.10;82.90;;;19.04;59.32;101241.31;5035687;28;20190;-65
2022/09/25 03:32:37;;;;;;;7.27;3.33;;;16.10;82.70;;;19.04;58.83;101235.97;5036083;28;20982;-66
2022/09/25 03:35:08;;;;;;;7.43;3.20;;;16.10;82.40;;;19.01;58.86;101235.63;5035612;28;20194;-65
2022/09/25 03:37:35;;;;;;;8.63;2.80;;;16.10;82.30;;;18.99;58.84;101240.34;5035478;28;20241;-65
2022/09/25 03:40:03;;;;;;;6.73;2.63;;;16.10;82.30;;;18.97;58.88;101243.22;5035149;28;20186;-65
2022/09/25 03:42:31;;;;;;;11.87;2.77;;;16.10;82.30;;;18.96;59.18;101232.78;5035003;28;20214;-66
2022/09/25 03:44:58;;;;;;;5.23;2.67;;;16.10;82.30;;;18.94;59.24;101238.34;5035273;28;20194;-66
2022/09/25 03:47:25;;;;;;;4.87;2.60;;;16.00;82.20;;;18.92;59.17;101238.53;5036542;28;20707;-65
2022/09/25 03:49:53;;;;;;;5.60;2.40;;;16.00;82.20;;;18.92;59.19;101235.06;5041045;28;20186;-65
2022/09/25 03:52:21;;;;;;;11.47;3.33;;;16.00;82.40;;;18.90;59.32;101234.44;5054583;28;20256;-66
2022/09/25 03:54:48;;;;;;;5.43;2.73;;;16.00;82.40;;;18.91;59.48;101236.09;5055141;28;20556;-66
2022/09/25 03:57:16;;;;;;;6.07;2.77;;;16.00;82.40;;;18.91;59.02;101236.09;5054717;28;20243;-65
2022/09/25 03:59:43;;;;;;;8.17;2.83;;;16.00;82.30;;;18.89;59.01;101233.66;5034893;28;20198;-66
2022/09/25 04:02:11;;;;;;;6.33;2.57;;;16.00;82.20;;;18.85;58.83;101227.09;5034543;28;20275;-65
2022/09/25 04:04:43;;;;;;;8.00;2.47;;;16.00;82.10;;;18.82;58.91;101238.22;5035072;28;20206;-65
2022/09/25 04:07:11;;;;;;;9.67;3.40;;;16.00;82.20;;;18.80;59.22;101234.13;5034879;28;20214;-65
2022/09/25 04:09:39;;;;;;;10.23;2.80;;;16.00;82.30;;;18.77;58.94;101230.06;5035063;28;20195;-66
2022/09/25 04:12:07;;;;;;;7.07;2.30;;;15.90;82.40;;;18.76;59.22;101239.06;5034928;28;20223;-65
2022/09/25 04:14:35;;;;;;;6.73;2.47;;;15.90;82.30;;;18.75;59.16;101226.78;5034933;28;20683;-65
2022/09/25 04:17:03;;;;;;;7.33;2.80;;;15.90;82.30;;;18.72;59.23;101226.38;5034650;28;20190;-65
2022/09/25 04:19:30;;;;;;;6.97;2.23;;;15.90;82.30;;;18.69;59.32;101219.63;5034792;28;20198;-65
2022/09/25 04:21:57;;;;;;;4.03;1.93;;;15.90;82.30;;;18.67;59.28;101224.38;5034301;28;20273;-66
2022/09/25 04:27:11;;;;;;;9.33;3.33;;;15.80;82.20;;;18.60;59.25;101234.25;5035711;28;20210;-64
2022/09/25 04:29:41;;;;;;;6.90;3.17;;;15.80;82.10;;;18.58;59.30;101228.34;5034029;28;20218;-65
2022/09/25 04:34:54;;;;;;;8.10;3.07;;;15.80;83.10;;;18.51;59.40;101232.88;5034550;28;20702;-64
2022/09/25 04:37:25;;;;;;;8.53;2.90;;;15.80;82.30;;;18.49;59.49;101232.28;5034303;28;20209;-65
2022/09/25 04:39:52;;;;;;;8.50;2.40;;;15.70;82.30;;;18.46;59.56;101232.72;5034622;28;20182;-64
2022/09/25 04:42:23;;;;;;;9.60;3.00;;;15.70;82.40;;;18.42;59.52;101234.16;5034169;28;20210;-65
2022/09/25 04:44:52;;;;;;;7.27;3.03;;;15.60;82.40;;;18.37;59.66;101236.63;5035467;28;20206;-66
2022/09/25 04:47:20;;;;;;;6.27;3.00;;;15.60;82.40;;;18.32;59.63;101239.13;5032980;28;20309;-65
2022/09/25 04:49:48;;;;;;;6.30;3.43;;;15.50;82.40;;;18.30;59.78;101237.69;5032741;28;20225;-64
2022/09/25 04:52:17;;;;;;;10.53;3.20;;;15.50;82.80;;;18.28;60.02;101235.22;5032623;28;20214;-66
2022/09/25 04:54:45;;;;;;;6.70;2.73;;;15.50;83.10;;;18.28;59.79;101230.72;5033901;28;20199;-63
2022/09/25 04:57:15;;;;;;;5.63;2.90;;;15.50;83.30;;;18.30;60.01;101232.34;5034008;28;20195;-64
2022/09/25 05:00:05;;;;;;;8.77;2.53;;;15.40;83.40;;;18.29;60.20;101231.53;5042342;28;20316;-65
2022/09/25 05:02:33;;;;;;;5.53;2.77;;;15.50;83.50;;;18.31;60.32;101228.63;5053155;28;20225;-65
2022/09/25 05:05:00;;;;;;;6.23;2.60;;;15.50;83.50;;;18.30;60.10;101227.03;5054298;28;20579;-65
2022/09/25 05:07:28;;;;;;;5.57;2.13;;;15.50;83.20;;;18.29;60.06;101226.19;5053924;28;20671;-64
2022/09/25 05:09:55;;;;;;;6.47;2.97;;;15.50;83.20;;;18.25;60.28;101217.81;5053750;28;20662;-63
2022/09/25 05:12:23;;;;;;;5.50;2.53;;;15.50;83.30;;;18.25;60.23;101230.34;5053232;28;20244;-65
2022/09/25 05:14:50;;;;;;;3.93;2.33;;;15.40;83.00;;;18.22;59.95;101233.41;5053468;28;20198;-65
2022/09/25 05:17:18;;;;;;;9.80;2.73;;;15.40;83.40;;;18.17;59.97;101230.56;5035673;28;20761;-65
2022/09/25 05:19:46;;;;;;;7.00;2.40;;;15.40;82.80;;;18.14;59.99;101230.97;5033258;28;20477;-65
2022/09/25 05:22:14;;;;;;;6.80;2.70;;;15.40;82.90;;;18.10;59.94;101219.13;5033202;28;20218;-65
2022/09/25 05:24:41;;;;;;;5.63;2.37;;;15.30;82.80;;;18.05;59.98;101218.94;5033523;28;20190;-66
2022/09/25 05:27:08;;;;;;;6.00;2.20;;;15.30;82.80;;;18.02;60.06;101224.66;5033191;28;20667;-65
2022/09/25 05:29:37;;;;;;;6.53;2.67;;;15.30;83.10;;;18.01;60.35;101217.72;5031916;28;20190;-65
2022/09/25 05:32:05;;;;;;;5.40;2.67;;;15.20;83.20;;;17.98;60.04;101220.81;5034311;28;20214;-65
2022/09/25 05:34:34;;;;;;;6.50;2.70;;;15.20;83.10;;;17.93;60.07;101226.75;5033181;28;20257;-65
2022/09/25 05:37:02;;;;;;;6.70;2.70;;;15.10;82.90;;;17.89;60.05;101230.06;5033262;28;20237;-65
2022/09/25 05:39:29;;;;;;;5.57;2.43;;;15.10;83.00;;;17.82;60.27;101230.09;5032535;28;20245;-65
2022/09/25 05:41:57;;;;;;;5.83;2.37;;;15.10;83.10;;;17.77;60.33;101227.22;5032759;28;20264;-65
2022/09/25 05:44:27;;;;;;;4.50;2.50;;;15.00;84.00;;;17.73;60.21;101225.19;5032881;28;20194;-65
2022/09/25 05:46:57;;;;;;;7.37;2.73;;;15.00;83.30;;;17.71;60.58;101224.59;5033331;28;20206;-65
2022/09/25 05:49:50;;;;;;;5.17;2.10;;;14.90;83.60;;;17.67;60.52;101234.00;5032949;28;20201;-66
2022/09/25 05:52:17;;;;;;;3.47;2.20;;;14.90;83.70;;;17.66;60.62;101229.72;5032747;28;20253;-66
2022/09/25 05:54:45;;;;;;;4.33;2.13;;;14.80;83.60;;;17.64;60.55;101232.56;5032953;28;20242;-65
2022/09/25 05:57:12;;;;;;;5.13;2.20;;;14.80;83.70;;;17.64;60.42;101237.09;5033782;28;20195;-64
2022/09/25 05:59:40;;;;;;;6.23;2.40;;;14.80;83.80;;;17.65;60.43;101228.06;5031827;28;20244;-66
2022/09/25 06:02:10;;;;;;;4.70;2.60;;;14.80;83.80;;;17.68;60.17;101233.00;5032462;28;20683;-66
2022/09/25 06:04:38;;;;;;;5.00;2.50;;;14.80;84.00;;;17.68;60.21;101233.00;5044555;28;20251;-65
2022/09/25 06:07:08;;;;;;;5.60;2.33;;;14.70;83.80;;;17.67;60.22;101237.50;5051378;28;20217;-64
2022/09/25 06:09:36;;;;;;;6.23;2.43;;;14.70;83.80;;;17.66;60.33;101227.88;5052616;28;20189;-64
2022/09/25 06:12:03;;;;;;;5.80;2.80;;;14.70;83.90;;;17.67;60.35;101237.50;5052252;28;20217;-65
2022/09/25 06:14:31;;;;;;;4.60;2.43;;;14.70;84.10;;;17.69;60.46;101232.78;5052403;28;20181;-65
2022/09/25 06:16:59;;;;;;;6.30;2.80;;;14.70;84.00;;;17.70;60.39;101231.75;5052437;28;20659;-65
2022/09/25 06:19:28;;;;;;;6.63;2.80;;;14.80;84.00;;;17.71;60.36;101227.25;5048735;28;20194;-65
2022/09/25 06:21:59;;;;;;;11.93;3.10;;;14.80;83.80;;;17.70;60.17;101230.94;5031982;28;20253;-65
2022/09/25 06:24:27;;;;;;;5.97;2.77;;;14.80;83.60;;;17.68;60.14;101227.66;5032387;28;20751;-65
2022/09/25 06:26:55;;;;;;;6.50;2.27;;;14.80;83.50;;;17.68;60.13;101227.66;5032371;28;20186;-65
2022/09/25 06:29:22;;;;;;;6.83;2.70;;;14.80;83.60;;;17.70;60.27;101233.59;5032320;28;20236;-65
2022/09/25 06:31:51;;;;;;;6.70;2.70;;;14.80;83.60;;;17.71;60.14;101229.91;5031909;28;20202;-64
2022/09/25 06:34:19;;;;;;;4.83;2.20;;;14.80;84.30;;;17.71;60.15;101232.59;5032178;28;20593;-64
2022/09/25 06:36:46;;;;;;;5.27;2.83;;;14.80;83.40;;;17.72;60.08;101239.53;5033303;28;20721;-65
2022/09/25 06:39:13;;;;;;;7.30;2.77;;;14.80;83.30;;;17.73;60.00;101238.50;5031868;28;20675;-65
2022/09/25 06:41:42;;;;;;;4.80;2.63;;;14.80;83.20;;;17.78;60.21;101244.81;5031808;28;20194;-65
2022/09/25 06:44:10;;;;;;;6.07;3.17;;;14.80;83.30;;;17.95;60.25;101246.00;5032002;28;20186;-66
2022/09/25 06:46:37;;;;;;;6.77;2.77;;;14.90;83.90;;;18.25;60.14;101241.00;5032261;28;20571;-66
2022/09/25 06:49:04;;;;;;;7.27;2.73;;;15.00;84.00;;;18.61;59.80;101240.41;5032101;28;20210;-66
2022/09/25 06:51:34;;;;;;;6.57;2.63;;;15.20;83.90;;;18.84;58.88;101241.50;5032863;28;20237;-65
2022/09/25 06:54:01;;;;;;;5.13;2.13;;;15.50;83.40;;;18.98;58.27;101236.88;5032092;28;20593;-65
2022/09/25 06:56:29;;;;;;;6.00;2.60;;;15.70;82.20;;;19.12;57.59;101238.41;5032053;28;20655;-65
2022/09/25 06:58:57;;;;;;;7.03;2.47;;;15.90;81.20;;;19.30;56.97;101245.66;5032046;28;20202;-66
2022/09/25 07:01:25;;;;;;;5.47;2.53;;;16.10;80.40;;;19.43;56.12;101241.03;5031494;28;20563;-66
2022/09/25 07:03:52;;;;;;;5.77;2.63;;;16.20;79.50;;;19.53;55.95;101248.53;5031710;28;20560;-66
2022/09/25 07:06:21;;;;;;;5.77;2.50;;;16.30;79.00;;;19.57;55.26;101247.88;5031954;28;20236;-66
2022/09/25 07:08:50;;;;;;;7.07;2.80;;;16.40;78.20;;;19.60;55.52;101249.28;5032750;28;20219;-63
2022/09/25 07:11:20;;;;;;;5.87;2.90;;;16.40;77.90;;;19.63;55.00;101246.19;5031323;28;20589;-65
2022/09/25 07:13:51;;;;;;;7.00;3.13;;;16.50;77.80;;;19.62;54.85;101255.22;5031771;28;20582;-64
2022/09/25 07:16:22;;;;;;;8.47;3.50;;;16.50;77.20;;;19.58;55.03;101259.38;5031714;28;20258;-66
2022/09/25 07:18:53;;;;;;;5.93;3.10;;;16.50;77.10;;;19.52;55.05;101254.91;5031685;28;20681;-64
2022/09/25 07:21:23;;;;;;;7.23;2.40;;;16.40;77.00;;;19.50;55.24;101251.63;5031422;28;20175;-64
2022/09/25 07:23:51;;;;;;;6.67;3.17;;;16.40;77.30;;;19.51;55.23;101251.44;5032109;28;20217;-66
2022/09/25 07:26:22;;;;;;;4.00;2.10;;;16.40;77.30;;;19.51;54.97;101258.63;5031695;28;20198;-64
2022/09/25 07:28:55;;;;;;;7.37;2.67;;;16.40;77.50;;;19.50;54.91;101251.63;5031281;28;20218;-66
2022/09/25 07:31:26;;;;;;;5.00;2.33;;;16.40;77.50;;;19.49;55.35;101261.50;5031051;28;20187;-65
2022/09/25 07:33:54;;;;;;;7.40;3.43;;;16.40;77.70;;;19.52;55.42;101254.91;5031252;28;20691;-66
2022/09/25 07:36:22;;;;;;;6.50;2.87;;;16.50;78.00;;;19.53;55.41;101261.88;5031465;28;20197;-66
2022/09/25 07:38:50;;;;;;;4.77;2.60;;;16.40;77.90;;;19.52;55.56;101261.06;5031630;28;20237;-65
2022/09/25 07:41:21;;;;;;;8.23;3.33;;;16.50;78.10;;;19.54;55.88;101260.81;5032347;28;20190;-66
2022/09/25 07:43:51;;;;;;;5.50;3.30;;;16.50;78.20;;;19.56;55.56;101264.91;5031308;28;20214;-66
2022/09/25 07:46:43;;;;;;;4.70;2.63;;;16.50;78.40;;;19.61;55.44;101264.28;5033520;28;20684;-67
2022/09/25 07:49:11;;;;;;;3.73;2.90;;;16.50;78.40;;;19.66;55.69;101256.41;5033564;28;20222;-68
2022/09/25 07:51:38;;;;;;;3.03;2.67;;;16.60;78.60;;;19.73;55.38;101251.78;5031466;28;20250;-67
2022/09/25 07:54:06;;;;;;;3.20;2.90;;;16.70;78.20;;;19.79;55.38;101245.59;5032143;28;20191;-67
2022/09/25 07:56:36;;;;;;;7.43;4.97;;;16.70;78.00;;;19.85;54.99;101239.34;5032149;28;20232;-63
2022/09/25 07:59:04;;;;;;;6.07;5.47;;;16.80;77.80;;;19.91;55.43;101248.31;5034432;28;20206;-64
2022/09/25 08:01:31;;;;;;;6.20;3.63;;;16.80;78.40;;;19.99;55.02;101251.50;5051072;28;20201;-66
2022/09/25 08:04:01;;;;;;;6.87;5.03;;;16.90;77.40;;;20.06;54.90;101249.56;5053279;28;20210;-66
2022/09/25 08:06:28;;;;;;;8.67;7.13;;;16.90;77.00;;;20.17;54.38;101254.19;5055251;28;20269;-67
2022/09/25 08:08:57;;;;;;;7.97;4.80;;;17.00;77.20;;;20.31;54.83;101252.19;5054712;28;20613;-66
2022/09/25 08:11:26;;;;;;;6.57;2.73;;;17.10;77.30;;;20.47;54.39;101246.19;5054506;28;20190;-66
2022/09/25 08:13:54;;;;;;;6.77;2.17;;;17.20;77.60;;;20.68;53.30;101253.72;5043016;28;20288;-64
2022/09/25 08:16:22;;;;;;;3.50;2.37;;;17.30;76.10;;;20.93;52.79;101258.91;5034603;28;20194;-66
2022/09/25 08:18:49;;;;;;;4.97;2.30;;;17.40;74.90;;;21.21;52.06;101251.06;5034939;28;20204;-66
2022/09/25 08:21:19;;;;;;;3.67;2.00;;;17.60;75.30;;;21.46;51.26;101254.34;5034681;28;20194;-66
2022/09/25 08:23:50;;;;;;;4.17;2.20;;;17.70;73.90;;;21.73;50.39;101259.22;5034680;28;20260;-66
2022/09/25 08:26:20;;;;;;;1.87;1.60;;;17.90;74.00;;;22.36;50.20;101249.31;5034898;28;20222;-66
2022/09/25 08:28:48;;;;;;;3.40;1.73;;;18.20;74.70;;;22.92;48.84;101248.44;5036675;28;20207;-65
2022/09/25 08:31:15;;;;;;;3.27;2.00;;;18.50;73.90;;;23.42;48.19;101253.84;5054353;28;20190;-64
2022/09/25 08:33:48;;;;;;;3.70;1.70;;;18.90;73.70;;;23.83;46.76;101253.34;5055216;28;20217;-64
2022/09/25 08:36:18;;;;;;;2.00;1.80;;;19.20;71.20;;;24.17;45.26;101246.81;5055466;28;20189;-65
2022/09/25 08:38:45;;;;;;;3.03;1.90;;;19.50;68.90;;;24.29;43.28;101254.75;5055838;28;20597;-65
2022/09/25 08:41:21;;;;;;;3.43;2.67;;;19.70;66.30;;;24.07;43.84;101245.88;5054920;28;20251;-65
2022/09/25 08:43:59;;;;;;;7.63;2.43;;;19.80;65.20;;;23.90;43.07;101245.91;5054794;28;20244;-65
2022/09/25 08:49:33;;;;;;;2.80;1.60;;;19.80;63.90;;;23.66;43.87;101249.88;5054049;28;20198;-66
2022/09/25 08:52:10;;;;;;;3.07;1.30;;;19.80;64.30;;;24.31;43.80;101251.81;5052302;28;20243;-65
2022/09/25 08:54:39;;;;;;;2.47;1.30;;;20.00;64.80;;;25.30;40.69;101251.13;5053949;28;20178;-65
2022/09/25 08:57:26;;;;;;;2.13;1.37;;;20.20;62.50;;;26.47;39.94;101256.03;5054486;28;20671;-65
2022/09/25 09:00:03;;;;;;;2.23;1.40;;;20.90;63.20;;;27.10;38.01;101248.56;5053805;28;20178;-66
2022/09/25 09:02:39;;;;;;;1.63;1.27;;;21.50;59.60;;;27.67;36.09;101249.00;5048914;28;20246;-66
2022/09/25 09:05:18;;;;;;;2.43;1.50;;;22.10;57.20;;;28.48;34.41;101254.09;5032563;28;20675;-66
2022/09/25 09:07:56;;;;;;;2.53;1.40;;;22.70;55.20;;;28.85;34.58;101254.41;5033742;28;20554;-65
2022/09/25 09:10:34;;;;;;;1.33;1.07;;;23.20;55.20;;;29.25;33.39;101254.09;5033927;28;20178;-66
2022/09/25 09:13:15;;;;;;;2.23;1.10;;;23.70;53.50;;;29.40;32.03;101253.94;5033891;28;20293;-63
2022/09/25 09:15:51;;;;;;;2.03;1.10;;;24.00;50.90;;;29.36;32.40;101252.88;5033995;28;20178;-66
2022/09/25 09:18:23;;;;;;;2.73;1.17;;;24.10;50.30;;;28.93;32.87;101255.72;5044842;28;20192;-67
2022/09/25 09:20:55;;;;;;;4.63;1.50;;;24.30;50.50;;;28.50;33.17;101258.13;5053257;28;20190;-67
2022/09/25 09:23:35;;;;;;;3.17;1.50;;;24.10;49.80;;;27.85;34.02;101251.13;5053848;28;20583;-66
2022/09/25 09:26:08;;;;;;;2.13;1.50;;;23.90;50.00;;;27.43;34.87;101253.41;5053747;28;20189;-66
2022/09/25 09:29:38;;;;;;;2.37;1.50;;;23.60;50.60;;;26.89;35.92;101255.06;5053637;28;20236;-65
2022/09/25 09:32:38;;;;;;;3.33;1.40;;;23.40;51.40;;;26.64;36.14;101256.63;5037718;28;20690;-65
2022/09/25 09:35:26;;;;;;;3.60;1.37;;;23.00;51.90;;;26.59;36.46;101256.59;5051265;28;20198;-65
2022/09/25 09:38:27;;;;;;;4.20;1.87;;;22.90;52.20;;;26.72;36.03;101255.28;5033676;28;20270;-65
2022/09/25 09:41:20;;;;;;;2.43;1.60;;;22.80;52.80;;;27.00;36.05;101256.66;5032716;28;20194;-67
2022/09/25 09:44:14;;;;;;;1.97;1.20;;;22.80;52.90;;;27.09;35.42;101253.16;5033578;28;20211;-66
2022/09/25 09:46:55;;;;;;;1.90;1.60;;;22.90;52.60;;;26.80;35.75;101252.06;5033829;28;20186;-65
2022/09/25 09:49:32;;;;;;;3.67;1.90;;;22.80;52.00;;;26.92;35.70;101251.78;5034256;28;20776;-67
2022/09/25 09:52:09;;;;;;;3.07;1.73;;;22.80;52.30;;;27.03;35.36;101254.22;5032963;28;20226;-67
2022/09/25 09:54:45;;;;;;;2.30;1.57;;;22.80;52.20;;;27.00;35.80;101253.97;5015874;28;20183;-65
2022/09/25 09:57:21;;;;;;;2.90;1.50;;;22.80;52.20;;;26.84;34.77;101251.25;5033304;28;20232;-66
2022/09/25 09:59:56;;;;;;;3.80;1.73;;;22.80;51.20;;;26.63;35.09;101251.47;5033207;28;20183;-66
2022/09/25 10:02:38;;;;;;;3.37;1.40;;;22.60;51.30;;;26.62;35.88;101250.69;5032742;28;20229;-66
2022/09/25 10:05:16;;;;;;;3.30;1.80;;;22.60;52.30;;;27.58;35.07;101253.38;5033142;28;20659;-66
2022/09/25 10:07:48;;;;;;;3.13;1.43;;;22.80;52.90;;;28.25;34.34;101254.75;5033808;28;20936;-66
2022/09/25 10:10:18;;;;;;;2.67;1.33;;;23.20;52.90;;;28.67;33.20;101247.75;5032759;28;20280;-66
2022/09/25 10:12:50;;;;;;;3.70;1.27;;;23.50;51.70;;;28.78;32.13;101243.91;5032454;28;20210;-65
2022/09/25 10:15:29;;;;;;;3.73;1.23;;;23.70;49.70;;;28.94;31.91;101244.56;5033538;28;20241;-67
2022/09/25 10:18:00;;;;;;;2.77;1.23;;;23.80;49.20;;;29.44;31.04;101241.41;5033202;28;20194;-66
2022/09/25 10:20:39;;;;;;;3.10;1.60;;;24.10;48.20;;;29.87;30.84;101228.72;5033623;28;20179;-66
2022/09/25 10:23:30;;;;;;;1.93;1.30;;;24.40;48.60;;;29.51;30.77;101238.34;5034095;28;20877;-65
2022/09/25 10:25:59;;;;;;;2.00;1.47;;;24.60;47.60;;;29.04;31.75;101230.94;5030452;28;20202;-65
2022/09/25 10:28:31;;;;;;;3.77;1.43;;;24.60;48.30;;;28.67;32.44;101238.81;5032185;28;20261;-65
2022/09/25 10:31:01;;;;;;;4.27;1.30;;;24.60;47.80;;;28.17;32.45;101229.06;5032997;28;20194;-68
2022/09/25 10:33:30;;;;;;;3.13;1.87;;;24.30;46.80;;;27.63;32.72;101228.19;5032874;28;20221;-66
2022/09/25 10:35:58;;;;;;;2.70;1.57;;;24.00;46.90;;;27.11;33.24;101229.34;5032779;28;20648;-66
2022/09/25 10:38:38;;;;;;;4.33;1.70;;;23.70;47.40;;;26.58;34.09;101225.25;5033841;28;20245;-66
2022/09/25 10:41:11;;;;;;;4.67;1.63;;;23.40;48.20;;;26.33;34.48;101225.22;5032311;28;20198;-66
2022/09/25 10:44:01;;;;;;;4.17;1.67;;;23.10;48.50;;;26.09;35.09;101229.44;5032035;28;20218;-66
2022/09/25 10:52:09;;;;;;;7.93;2.60;;;22.50;49.40;;;25.35;35.85;101221.50;5031874;28;20763;-67
2022/09/25 10:54:37;;;;;;;5.20;2.83;;;22.20;50.00;;;25.06;36.36;101228.31;5037747;28;20210;-67
2022/09/25 10:57:34;;;;;;;6.30;2.70;;;22.00;50.50;;;24.65;37.40;101221.72;5053278;28;20173;-67